Saturday, July 21, 2018, 8:44 PM EDT
Back to Local

K12N, Aeroflex-andover Airport

Location: Newton, NJ, United States Lat: 41.017
Local Time: 8:44 PM EDT ( 0:44 GMT) Lon: -74.733
Time Zone: US/Eastern Elev: 583 ft

Show me the last for .
Show Decoded

2018-07-21 19:54 METAR K12N 212354Z AUTO 00000KT 18/15 A2998 RMK AO1 SLP149 P0001 60002 T01830150
                 10239 20183 58008 =
2018-07-21 18:54 METAR K12N 212254Z AUTO VRB03KT 19/16 A3000 RMK AO1 SLP154 P0001 T01940161 =
2018-07-21 17:54 METAR K12N 212154Z AUTO VRB04KT 22/16 A3000 RMK AO1 SLP155 T02170156 =
2018-07-21 16:54 METAR K12N 212054Z AUTO VRB03KT 22/14 A3001 RMK AO1 SLP158 T02220144 56013 =
2018-07-21 15:54 METAR K12N 211954Z AUTO VRB04KT 22/14 A3002 RMK AO1 SLP161 T02220144 =
2018-07-21 14:54 METAR K12N 211854Z AUTO VRB03KT 23/15 A3003 RMK AO1 SLP166 T02280150 =
2018-07-21 13:54 METAR K12N 211754Z AUTO 00000KT 23/14 A3005 RMK AO1 SLP170 T02330144 10244 20189
                 58014 =
2018-07-21 12:54 METAR K12N 211654Z AUTO 00000KT 23/13 A3007 RMK AO1 SLP178 T02330133 =
2018-07-21 11:54 METAR K12N 211554Z AUTO 10007KT 060V150 24/13 A3008 RMK AO1 SLP181 T02390133 =
2018-07-21 10:54 METAR K12N 211454Z AUTO VRB05KT 23/16 A3009 RMK AO1 SLP183 T02280156 54000 =
2018-07-21 09:54 METAR K12N 211354Z AUTO 22/16 A3009 RMK AO1 SLP183 T02170156 =
2018-07-21 08:54 METAR K12N 211254Z AUTO 00000KT 22/16 A3009 RMK AO1 SLP183 T02170156 =
2018-07-21 07:54 METAR K12N 211154Z AUTO VRB03KT 19/17 A3009 RMK AO1 SLP183 T01890167 10189 20150
                 56003 =
2018-07-21 06:54 METAR K12N 211054Z AUTO VRB03KT 16/16 A3009 RMK AO1 SLP183 T01610156 =
2018-07-21 05:54 METAR K12N 210954Z AUTO 00000KT 16/16 A3010 RMK AO1 SLP186 T01560156 =
2018-07-21 04:54 METAR K12N 210854Z AUTO 00000KT 16/16 A3010 RMK AO1 SLP186 T01560156 58004 =
2018-07-21 03:54 METAR K12N 210754Z AUTO 00000KT 15/15 A3011 RMK AO1 SLP188 T01500150 =
2018-07-21 02:54 METAR K12N 210654Z AUTO 00000KT 16/15 A3012 RMK AO1 SLP192 T01560150 =
2018-07-21 01:54 METAR K12N 210554Z AUTO 00000KT 16/16 A3011 RMK AO1 SLP191 T01610156 10233 20161
                 56008 =
2018-07-21 00:54 METAR K12N 210454Z AUTO 00000KT 18/16 A3012 RMK AO1 SLP192 T01780156 402830139 =
2018-07-20 23:54 METAR K12N 210354Z AUTO VRB03KT 19/16 A3013 RMK AO1 SLP194 T01890156 =
2018-07-20 22:54 METAR K12N 210254Z AUTO 00000KT 19/15 A3014 RMK AO1 SLP198 T01940150 51007 =
2018-07-20 21:54 METAR K12N 210154Z AUTO VRB03KT 20/13 A3014 RMK AO1 SLP199 T02000133 =
2018-07-20 20:54 METAR K12N 210054Z AUTO 00000KT 22/12 A3012 RMK AO1 SLP192 T02170122 =

Support USWX by starting your Amazon purchase here.